Time;durP1;ratioP1;P1;durP2;ratioP2;P2;SDS_P1;SDS_P2;PMS_P1;PMS_P2;Temp;Humidity;BMP_temperature;BMP_pressure;BME280_temperature;BME280_humidity;BME280_pressure;Samples;Min_cycle;Max_cycle;Signal;HPM_P1;HPM_P2
2021/12/09 00:00:13;;;;;;;2.83;1.40;;;6.90;99.90;;;;;;5094504;28;20197;-75
2021/12/09 00:02:40;;;;;;;2.53;1.20;;;6.80;99.90;;;;;;5111438;28;20185;-76
2021/12/09 00:05:08;;;;;;;5.33;1.37;;;7.00;99.90;;;;;;5113313;28;20199;-77
2021/12/09 00:07:34;;;;;;;1.37;1.10;;;7.00;99.90;;;;;;5111584;28;20543;-76
2021/12/09 00:10:03;;;;;;;2.33;1.33;;;7.10;99.90;;;;;;5110999;28;20181;-76
2021/12/09 00:12:28;;;;;;;2.87;1.07;;;7.00;99.90;;;;;;5077979;28;20218;-75
2021/12/09 00:14:55;;;;;;;3.90;1.10;;;6.90;99.90;;;;;;5112444;28;20224;-76
2021/12/09 00:17:21;;;;;;;3.10;1.03;;;7.00;99.90;;;;;;5094095;28;20514;-74
2021/12/09 00:19:47;;;;;;;3.10;1.50;;;6.90;99.90;;;;;;5110747;28;20253;-76
2021/12/09 00:22:13;;;;;;;3.43;1.10;;;6.90;99.90;;;;;;5110542;28;20664;-75
2021/12/09 00:24:39;;;;;;;4.17;1.10;;;6.90;99.90;;;;;;5110313;28;20195;-75
2021/12/09 00:27:05;;;;;;;4.43;1.20;;;6.90;99.90;;;;;;5111526;28;20175;-75
2021/12/09 00:29:33;;;;;;;2.77;0.83;;;6.90;99.90;;;;;;5093636;28;20235;-76
2021/12/09 00:31:59;;;;;;;6.50;1.50;;;6.80;99.90;;;;;;5093960;28;20229;-76
2021/12/09 00:34:31;;;;;;;0.90;0.63;;;6.60;99.90;;;;;;5111855;28;20170;-75
2021/12/09 00:37:03;;;;;;;1.23;0.90;;;6.60;99.90;;;;;;5077351;28;20540;-75
2021/12/09 00:39:29;;;;;;;2.93;1.00;;;6.60;99.90;;;;;;5110793;28;20254;-75
2021/12/09 00:41:55;;;;;;;4.37;1.13;;;6.70;99.90;;;;;;5109938;28;20281;-75
2021/12/09 00:44:21;;;;;;;3.97;1.13;;;6.70;99.90;;;;;;5110226;28;20217;-76
2021/12/09 00:46:46;;;;;;;2.17;0.90;;;6.70;99.90;;;;;;5093463;28;20582;-77
2021/12/09 00:49:12;;;;;;;4.60;1.27;;;6.70;99.90;;;;;;5093449;28;20190;-77
2021/12/09 00:51:38;;;;;;;3.23;0.93;;;6.70;99.90;;;;;;5109614;28;20202;-75
2021/12/09 00:54:04;;;;;;;5.63;1.33;;;6.60;99.90;;;;;;5093472;28;20699;-75
2021/12/09 00:56:30;;;;;;;0.83;0.70;;;6.60;99.90;;;;;;5111409;28;20168;-76
2021/12/09 00:58:56;;;;;;;1.63;1.00;;;6.60;99.90;;;;;;5117768;28;20705;-76
2021/12/09 01:01:23;;;;;;;3.10;0.93;;;6.70;99.90;;;;;;5118117;27;20213;-76
2021/12/09 01:03:49;;;;;;;4.40;1.20;;;6.70;99.90;;;;;;5099724;28;20194;-76
2021/12/09 01:06:15;;;;;;;4.03;1.27;;;6.80;99.90;;;;;;5116924;28;20174;-77
2021/12/09 01:08:42;;;;;;;5.07;1.20;;;6.80;99.90;;;;;;5118367;28;20193;-76
2021/12/09 01:11:09;;;;;;;3.37;1.00;;;6.80;99.90;;;;;;5100032;28;20623;-76
2021/12/09 01:13:35;;;;;;;3.53;1.17;;;6.80;99.90;;;;;;5100061;28;20653;-77
2021/12/09 01:16:01;;;;;;;2.43;1.10;;;7.00;99.90;;;;;;5099335;28;20167;-78
2021/12/09 01:18:27;;;;;;;2.07;0.90;;;6.80;99.90;;;;;;5116848;28;20563;-76
2021/12/09 01:20:53;;;;;;;3.43;1.60;;;6.70;99.90;;;;;;5116360;28;20179;-77
2021/12/09 01:23:19;;;;;;;4.50;2.17;;;6.70;99.90;;;;;;5118072;28;20167;-75
2021/12/09 01:25:45;;;;;;;5.23;2.63;;;6.80;99.90;;;;;;5116565;28;20187;-76
2021/12/09 01:28:19;;;;;;;7.27;5.20;;;6.70;99.90;;;;;;5116989;28;20171;-76
2021/12/09 01:30:48;;;;;;;14.37;6.27;;;6.70;99.90;;;;;;5117194;28;20246;-76
2021/12/09 01:33:14;;;;;;;7.17;2.47;;;6.80;99.90;;;;;;5117050;28;20648;-76
2021/12/09 01:35:41;;;;;;;3.17;1.40;;;6.70;99.90;;;;;;5117807;28;20201;-76
2021/12/09 01:38:13;;;;;;;5.20;1.50;;;6.70;99.90;;;;;;5116704;28;20569;-76
2021/12/09 01:40:39;;;;;;;3.53;1.00;;;6.60;99.90;;;;;;5116663;28;20171;-77
2021/12/09 01:43:05;;;;;;;2.63;1.10;;;6.60;99.90;;;;;;5118281;28;20190;-75
2021/12/09 01:45:31;;;;;;;3.80;1.03;;;6.60;99.90;;;;;;5108185;28;20630;-76
2021/12/09 01:47:57;;;;;;;2.30;1.13;;;6.70;99.90;;;;;;5116406;27;20190;-77
2021/12/09 01:50:25;;;;;;;2.73;1.07;;;6.60;99.90;;;;;;5099439;28;20703;-77
2021/12/09 01:52:52;;;;;;;2.03;0.90;;;6.60;99.90;;;;;;5118121;27;20191;-78
2021/12/09 01:55:20;;;;;;;2.97;1.30;;;6.60;99.90;;;;;;5116534;28;20175;-76
2021/12/09 01:57:49;;;;;;;4.43;1.20;;;6.60;99.90;;;;;;5116625;28;20690;-78
2021/12/09 02:00:19;;;;;;;2.77;1.20;;;6.70;99.90;;;;;;5117800;28;20167;-76
2021/12/09 02:02:46;;;;;;;2.03;1.30;;;6.60;99.90;;;;;;5117813;28;20183;-77
2021/12/09 02:05:13;;;;;;;3.50;1.27;;;6.60;99.90;;;;;;5099147;28;20179;-77
2021/12/09 02:07:40;;;;;;;4.40;1.70;;;6.60;99.90;;;;;;5116410;28;20257;-77
2021/12/09 02:10:12;;;;;;;1.47;1.10;;;6.60;99.90;;;;;;5112712;28;20523;-78
2021/12/09 02:12:38;;;;;;;3.23;1.43;;;6.70;99.90;;;;;;5096549;28;20207;-76
2021/12/09 02:15:07;;;;;;;3.10;1.80;;;6.70;99.90;;;;;;5080253;28;20179;-77
2021/12/09 02:17:34;;;;;;;3.37;1.50;;;6.80;99.90;;;;;;5114964;28;20517;-76
2021/12/09 02:20:02;;;;;;;3.07;1.33;;;6.70;99.90;;;;;;5095713;28;20171;-77
2021/12/09 02:22:29;;;;;;;2.30;1.60;;;6.60;99.90;;;;;;5112867;28;20181;-76
2021/12/09 02:24:56;;;;;;;3.77;1.80;;;6.70;99.90;;;;;;5114196;28;20187;-77
2021/12/09 02:27:24;;;;;;;3.83;1.80;;;6.60;99.90;;;;;;5113472;28;20167;-78
2021/12/09 02:29:51;;;;;;;2.90;1.70;;;6.60;99.90;;;;;;5113076;28;20179;-75
2021/12/09 02:32:18;;;;;;;4.23;1.70;;;6.60;99.90;;;;;;5113157;28;20206;-77
2021/12/09 02:34:43;;;;;;;3.67;2.20;;;6.60;99.90;;;;;;5078920;28;20223;-76
2021/12/09 02:37:12;;;;;;;3.13;1.97;;;6.70;99.90;;;;;;5113137;28;20622;-76
2021/12/09 02:39:39;;;;;;;3.07;1.83;;;6.90;99.90;;;;;;5114223;28;20178;-77
2021/12/09 02:42:05;;;;;;;2.03;1.70;;;6.60;99.90;;;;;;5113382;28;20221;-77
2021/12/09 02:44:31;;;;;;;3.07;1.60;;;6.70;99.90;;;;;;5112501;28;20645;-76
2021/12/09 02:46:58;;;;;;;2.57;1.97;;;6.60;99.90;;;;;;5112301;28;20171;-76
2021/12/09 02:49:27;;;;;;;5.93;1.80;;;6.80;99.90;;;;;;5112468;28;20175;-76
2021/12/09 02:51:53;;;;;;;6.67;2.07;;;6.60;99.90;;;;;;5113283;28;20195;-76
2021/12/09 02:54:21;;;;;;;4.57;1.83;;;6.70;99.90;;;;;;5112114;28;20178;-76
2021/12/09 02:56:49;;;;;;;7.30;2.07;;;6.70;99.90;;;;;;5112146;28;20223;-76
2021/12/09 02:59:15;;;;;;;4.77;2.07;;;6.70;99.90;;;;;;5111985;28;20164;-76
2021/12/09 03:02:05;;;;;;;3.07;1.73;;;6.70;99.90;;;;;;5113549;28;20163;-77
2021/12/09 03:04:52;;;;;;;4.37;2.07;;;6.80;99.90;;;;;;5113374;28;20195;-76
2021/12/09 03:07:27;;;;;;;4.13;2.20;;;6.60;99.90;;;;;;5112957;28;20175;-77
2021/12/09 03:09:59;;;;;;;6.40;2.00;;;6.70;99.90;;;;;;5113313;28;20171;-75
2021/12/09 03:12:35;;;;;;;4.90;2.03;;;6.70;99.90;;;;;;5111693;28;20580;-75
2021/12/09 03:15:04;;;;;;;4.90;2.03;;;6.90;99.90;;;;;;5111656;28;20179;-75
2021/12/09 03:17:30;;;;;;;5.63;2.00;;;6.80;99.90;;;;;;5111509;28;20251;-76
2021/12/09 03:19:56;;;;;;;7.60;2.07;;;6.70;99.90;;;;;;5094419;28;20556;-76
2021/12/09 03:22:22;;;;;;;3.43;1.80;;;6.70;99.90;;;;;;5113021;28;20202;-75
2021/12/09 03:24:48;;;;;;;6.77;1.97;;;6.70;99.90;;;;;;5112488;28;20191;-76
2021/12/09 03:27:14;;;;;;;4.30;1.73;;;6.60;99.90;;;;;;5111298;28;20163;-77
2021/12/09 03:29:40;;;;;;;3.13;1.60;;;6.50;99.90;;;;;;5094881;28;20204;-77
2021/12/09 03:32:12;;;;;;;3.83;1.80;;;6.80;99.90;;;;;;5111305;28;20248;-76
2021/12/09 03:34:39;;;;;;;3.97;1.70;;;6.90;99.90;;;;;;5111349;28;20574;-76
2021/12/09 03:37:09;;;;;;;3.90;2.23;;;6.90;99.90;;;;;;5107660;28;20622;-76
2021/12/09 03:39:38;;;;;;;3.77;1.70;;;6.90;99.90;;;;;;5107226;28;20175;-77
2021/12/09 03:42:07;;;;;;;5.97;2.30;;;6.90;99.90;;;;;;5093949;28;20201;-76
2021/12/09 03:44:33;;;;;;;3.47;1.80;;;6.90;99.90;;;;;;5112335;27;20197;-76
2021/12/09 03:47:03;;;;;;;3.97;2.10;;;6.80;99.90;;;;;;5110932;28;20196;-76
2021/12/09 03:49:29;;;;;;;3.57;1.80;;;6.80;99.90;;;;;;5110935;28;20612;-77
2021/12/09 03:51:56;;;;;;;4.00;1.60;;;6.70;99.90;;;;;;5112323;28;20230;-77
2021/12/09 03:54:24;;;;;;;4.50;2.20;;;6.80;99.90;;;;;;5110874;28;20220;-76
2021/12/09 03:56:50;;;;;;;3.77;2.00;;;6.60;99.90;;;;;;5107153;28;20178;-76
2021/12/09 03:59:19;;;;;;;4.33;1.80;;;6.70;99.90;;;;;;5088585;28;20182;-76
2021/12/09 04:01:46;;;;;;;3.40;2.10;;;6.70;99.90;;;;;;5086432;28;20176;-77
2021/12/09 04:04:14;;;;;;;3.53;1.73;;;7.00;99.90;;;;;;5110664;28;20532;-76
2021/12/09 04:06:41;;;;;;;5.90;2.30;;;6.80;99.90;;;;;;5110237;28;20179;-75
2021/12/09 04:09:09;;;;;;;8.70;2.20;;;6.70;99.90;;;;;;5110682;28;20247;-77
2021/12/09 04:11:35;;;;;;;4.53;2.30;;;6.90;99.90;;;;;;5110790;28;20679;-76
2021/12/09 04:14:02;;;;;;;4.23;1.90;;;6.80;99.90;;;;;;5110491;28;20175;-76
2021/12/09 04:16:29;;;;;;;3.67;1.93;;;6.70;99.90;;;;;;5093865;28;20182;-76
2021/12/09 04:18:55;;;;;;;3.90;2.00;;;6.50;99.90;;;;;;5111828;28;20163;-77
2021/12/09 04:21:22;;;;;;;7.13;2.33;;;6.50;99.90;;;;;;5110518;28;20306;-77
2021/12/09 04:23:48;;;;;;;7.93;2.00;;;6.70;99.90;;;;;;5111572;28;20175;-76
2021/12/09 04:26:14;;;;;;;5.03;2.10;;;6.70;99.90;;;;;;5093233;28;20197;-77
2021/12/09 04:28:42;;;;;;;5.90;2.07;;;6.70;99.90;;;;;;5076632;28;20179;-76
2021/12/09 04:31:08;;;;;;;5.43;2.10;;;6.60;99.90;;;;;;5093698;28;20175;-76
2021/12/09 04:33:34;;;;;;;5.97;2.10;;;6.60;99.90;;;;;;5109290;28;20250;-76
2021/12/09 04:36:00;;;;;;;5.20;1.90;;;6.80;99.90;;;;;;5110206;28;20202;-76
2021/12/09 04:38:27;;;;;;;4.17;1.80;;;6.70;99.90;;;;;;5076770;28;20224;-75
2021/12/09 04:40:53;;;;;;;3.63;1.63;;;6.60;99.90;;;;;;5093197;28;20175;-76
2021/12/09 04:43:19;;;;;;;7.53;2.43;;;6.60;99.90;;;;;;5109844;28;20190;-76
2021/12/09 04:45:46;;;;;;;6.30;2.40;;;6.90;99.90;;;;;;5111073;28;20246;-75
2021/12/09 04:48:11;;;;;;;8.23;2.53;;;6.80;99.90;;;;;;5109965;28;20602;-75
2021/12/09 04:50:39;;;;;;;5.87;1.87;;;6.70;99.90;;;;;;5110247;28;20263;-76
2021/12/09 04:53:06;;;;;;;4.73;1.97;;;6.80;99.90;;;;;;5111387;28;20214;-77
2021/12/09 04:55:32;;;;;;;4.97;1.70;;;6.80;99.90;;;;;;5092664;28;20163;-76
2021/12/09 04:57:58;;;;;;;3.30;1.63;;;6.80;99.90;;;;;;5110020;28;20171;-76
2021/12/09 05:00:26;;;;;;;3.60;1.90;;;6.80;99.90;;;;;;5109853;28;20264;-75
2021/12/09 05:03:04;;;;;;;5.23;1.73;;;6.70;99.90;;;;;;5110103;28;20167;-75
2021/12/09 05:05:35;;;;;;;5.50;2.40;;;6.80;99.90;;;;;;5109646;28;20163;-76
2021/12/09 05:08:05;;;;;;;4.47;1.87;;;6.90;99.90;;;;;;5109894;28;20227;-74
2021/12/09 05:10:34;;;;;;;4.27;1.83;;;6.90;99.90;;;;;;5109978;28;20179;-76
2021/12/09 05:13:02;;;;;;;5.70;1.70;;;7.00;99.90;;;;;;5109798;28;20289;-77
2021/12/09 05:15:28;;;;;;;5.67;2.13;;;7.00;99.90;;;;;;5109540;28;20163;-76
2021/12/09 05:17:53;;;;;;;5.73;1.83;;;7.00;99.90;;;;;;5110228;28;20751;-75
2021/12/09 05:20:19;;;;;;;3.47;1.50;;;6.90;99.90;;;;;;5110953;28;20548;-76
2021/12/09 05:22:45;;;;;;;4.47;1.40;;;6.80;99.90;;;;;;5092875;28;20173;-76
2021/12/09 05:25:11;;;;;;;5.33;1.77;;;6.90;99.90;;;;;;5110584;28;20198;-77
2021/12/09 05:27:38;;;;;;;3.33;1.53;;;6.80;99.90;;;;;;5082911;28;20186;-78
2021/12/09 05:30:08;;;;;;;4.03;1.73;;;6.70;99.90;;;;;;5100746;28;20183;-78
2021/12/09 05:32:34;;;;;;;2.67;1.63;;;6.90;99.90;;;;;;5093366;28;20198;-76
2021/12/09 05:35:20;;;;;;;4.97;1.57;;;7.00;99.90;;;;;;5090296;28;20218;-77
2021/12/09 05:37:48;;;;;;;4.67;1.83;;;7.10;99.90;;;;;;5089313;28;20206;-77
2021/12/09 05:40:15;;;;;;;5.40;1.60;;;6.80;99.90;;;;;;5089458;28;20164;-77
2021/12/09 05:42:42;;;;;;;5.10;1.60;;;6.90;99.90;;;;;;5095711;28;20203;-78
2021/12/09 05:45:08;;;;;;;2.93;1.40;;;7.00;99.90;;;;;;5077793;28;20178;-77
2021/12/09 05:47:34;;;;;;;1.87;1.30;;;7.00;99.90;;;;;;5097402;28;20254;-75
2021/12/09 05:50:00;;;;;;;6.83;1.43;;;7.00;99.90;;;;;;5101498;28;20791;-77
2021/12/09 05:52:26;;;;;;;2.53;1.27;;;7.10;99.90;;;;;;5113156;28;20228;-78
2021/12/09 05:54:52;;;;;;;3.97;1.50;;;7.00;99.90;;;;;;5073095;28;20605;-77
2021/12/09 05:57:18;;;;;;;2.07;1.47;;;6.90;99.90;;;;;;5105151;28;20189;-78
2021/12/09 05:59:44;;;;;;;4.63;1.87;;;6.90;99.90;;;;;;5086383;28;20171;-76
2021/12/09 06:02:15;;;;;;;6.33;1.57;;;6.90;99.90;;;;;;5099877;28;20787;-77
2021/12/09 06:04:41;;;;;;;7.03;1.53;;;7.10;99.90;;;;;;5093722;28;20491;-77
2021/12/09 06:07:07;;;;;;;5.90;1.20;;;6.90;99.90;;;;;;5104853;28;20187;-77
2021/12/09 06:09:33;;;;;;;2.53;1.20;;;6.80;99.90;;;;;;5089444;28;20176;-77
2021/12/09 06:11:59;;;;;;;2.07;1.00;;;6.80;99.90;;;;;;5069732;28;20686;-78
2021/12/09 06:14:24;;;;;;;1.67;1.00;;;6.80;99.90;;;;;;5095360;28;20179;-77
2021/12/09 06:16:50;;;;;;;4.20;1.13;;;6.90;99.90;;;;;;5112709;28;20685;-76
2021/12/09 06:19:16;;;;;;;2.37;1.10;;;6.80;99.90;;;;;;5105064;28;20176;-77
2021/12/09 06:21:42;;;;;;;3.47;1.43;;;6.80;99.90;;;;;;5098635;28;20194;-78
2021/12/09 06:24:08;;;;;;;2.10;1.43;;;6.80;99.90;;;;;;5068294;28;20192;-78
2021/12/09 06:26:34;;;;;;;3.57;1.30;;;6.90;99.90;;;;;;5082391;28;20203;-76
2021/12/09 06:29:00;;;;;;;3.33;1.37;;;7.00;99.90;;;;;;5100769;28;20302;-78
2021/12/09 06:31:26;;;;;;;3.73;1.70;;;6.90;99.90;;;;;;5080633;28;20608;-76
2021/12/09 06:33:53;;;;;;;5.67;1.93;;;6.90;99.90;;;;;;5092788;28;20171;-76
2021/12/09 06:36:20;;;;;;;5.57;1.40;;;7.00;99.90;;;;;;5097278;28;20171;-77
2021/12/09 06:38:46;;;;;;;4.70;1.30;;;6.90;99.90;;;;;;5089761;28;20178;-76
2021/12/09 06:41:12;;;;;;;2.47;1.20;;;6.80;99.90;;;;;;5091260;28;20534;-78
2021/12/09 06:43:40;;;;;;;3.03;1.33;;;6.90;99.90;;;;;;5074054;28;20186;-76
2021/12/09 06:46:08;;;;;;;3.87;1.47;;;6.80;99.90;;;;;;5099304;28;20635;-77
2021/12/09 06:48:35;;;;;;;3.97;1.27;;;6.90;99.90;;;;;;5083254;28;20259;-76
2021/12/09 06:51:05;;;;;;;5.33;1.60;;;7.00;99.90;;;;;;5096802;28;20258;-76
2021/12/09 06:53:32;;;;;;;4.37;2.07;;;7.00;99.90;;;;;;5097812;28;20547;-77
2021/12/09 06:55:59;;;;;;;16.43;3.63;;;7.00;99.90;;;;;;5073545;28;20176;-77
2021/12/09 06:58:26;;;;;;;39.97;4.80;;;7.00;99.90;;;;;;5099155;28;20203;-78
2021/12/09 07:00:54;;;;;;;8.70;1.80;;;6.70;99.90;;;;;;5091977;28;20452;-75
2021/12/09 07:03:21;;;;;;;2.40;1.30;;;6.80;99.90;;;;;;5091880;28;20176;-77
2021/12/09 07:05:52;;;;;;;4.63;1.33;;;6.80;99.90;;;;;;5086478;28;20222;-77
2021/12/09 07:08:19;;;;;;;4.37;1.40;;;6.70;99.90;;;;;;5094334;28;20180;-78
2021/12/09 07:10:46;;;;;;;4.00;1.40;;;6.50;99.90;;;;;;5108301;28;20171;-76
2021/12/09 07:13:12;;;;;;;2.77;1.30;;;6.60;99.90;;;;;;5113207;28;20286;-77
2021/12/09 07:15:38;;;;;;;4.50;1.27;;;6.80;99.90;;;;;;5077719;28;20179;-77
2021/12/09 07:18:05;;;;;;;1.97;1.37;;;6.90;99.90;;;;;;5111236;28;20251;-74
2021/12/09 07:20:31;;;;;;;2.80;1.33;;;6.90;99.90;;;;;;5113579;28;20294;-77
2021/12/09 07:22:59;;;;;;;4.70;1.80;;;7.00;99.90;;;;;;5110981;28;20182;-76
2021/12/09 07:25:26;;;;;;;5.57;1.73;;;6.90;99.90;;;;;;5111045;28;20195;-76
2021/12/09 07:27:53;;;;;;;5.33;2.23;;;7.00;99.90;;;;;;5094591;28;20204;-75
2021/12/09 07:30:21;;;;;;;5.25;1.77;;;7.00;99.90;;;;;;5109026;28;20843;-76
2021/12/09 07:32:48;;;;;;;4.50;1.90;;;7.00;99.90;;;;;;5086712;28;20203;-76
2021/12/09 07:35:15;;;;;;;3.53;1.50;;;7.00;99.90;;;;;;5101643;28;20259;-75
2021/12/09 07:37:43;;;;;;;5.07;1.70;;;7.00;99.90;;;;;;5094037;28;20188;-76
2021/12/09 07:40:13;;;;;;;5.93;1.60;;;7.00;99.90;;;;;;5091610;28;20195;-75
2021/12/09 07:42:39;;;;;;;7.17;1.50;;;7.00;99.90;;;;;;5087425;28;20196;-76
2021/12/09 07:45:07;;;;;;;3.37;1.50;;;7.10;99.90;;;;;;5075240;28;20228;-78
2021/12/09 07:47:33;;;;;;;5.33;1.40;;;7.00;99.90;;;;;;5078117;28;20183;-75
2021/12/09 07:49:59;;;;;;;2.83;1.33;;;7.10;99.90;;;;;;5092101;28;20236;-76
2021/12/09 07:52:25;;;;;;;4.47;2.73;;;7.10;99.90;;;;;;5094330;28;20210;-76
2021/12/09 07:54:51;;;;;;;10.33;2.30;;;7.10;99.90;;;;;;5072920;28;20184;-75
2021/12/09 07:57:17;;;;;;;5.47;1.73;;;7.00;99.90;;;;;;5090649;28;20511;-77
2021/12/09 07:59:43;;;;;;;2.77;1.40;;;7.10;99.90;;;;;;5082762;28;20179;-77
2021/12/09 08:02:11;;;;;;;5.97;1.67;;;7.10;99.90;;;;;;5096527;28;20270;-77
2021/12/09 08:04:38;;;;;;;7.17;1.60;;;7.10;99.90;;;;;;5090539;28;20180;-77
2021/12/09 08:07:04;;;;;;;3.10;1.63;;;7.20;99.90;;;;;;5073110;28;20183;-75
2021/12/09 08:09:34;;;;;;;4.67;2.10;;;7.00;99.90;;;;;;5100440;28;20220;-77
2021/12/09 08:12:01;;;;;;;6.33;2.00;;;7.10;99.90;;;;;;5091995;28;20210;-76
2021/12/09 08:14:31;;;;;;;5.43;2.13;;;7.20;99.90;;;;;;5082262;28;20277;-76
2021/12/09 08:17:11;;;;;;;4.00;1.90;;;7.20;99.90;;;;;;5115787;28;20179;-77
2021/12/09 08:19:37;;;;;;;5.83;2.00;;;7.20;99.90;;;;;;5083049;28;20229;-77
2021/12/09 08:22:08;;;;;;;4.20;1.40;;;7.20;99.90;;;;;;5096637;28;20665;-77
2021/12/09 08:24:34;;;;;;;5.33;1.50;;;7.10;99.90;;;;;;5080234;28;20541;-76
2021/12/09 08:27:00;;;;;;;5.70;1.90;;;7.20;99.90;;;;;;5096783;28;20191;-75
2021/12/09 08:29:26;;;;;;;3.90;1.50;;;7.20;99.90;;;;;;5072221;28;20184;-76
2021/12/09 08:31:51;;;;;;;9.20;1.63;;;7.10;99.90;;;;;;5088687;28;20195;-78
2021/12/09 08:34:17;;;;;;;1.97;1.77;;;7.00;99.90;;;;;;5088756;28;20171;-75
2021/12/09 08:36:43;;;;;;;6.80;2.00;;;7.10;99.90;;;;;;5097016;28;20175;-76
2021/12/09 08:39:09;;;;;;;2.73;1.50;;;7.20;99.90;;;;;;5090512;28;20244;-76
2021/12/09 08:41:35;;;;;;;5.10;1.80;;;7.20;99.90;;;;;;5102873;28;20621;-77
2021/12/09 08:44:01;;;;;;;4.87;1.90;;;6.90;99.90;;;;;;5072163;28;20180;-76
2021/12/09 08:46:32;;;;;;;3.00;1.57;;;6.80;99.90;;;;;;5104479;28;20636;-76
2021/12/09 08:48:58;;;;;;;3.20;1.70;;;7.00;99.90;;;;;;5085094;28;20612;-74
2021/12/09 08:51:24;;;;;;;4.73;2.20;;;7.00;99.90;;;;;;5102004;28;20232;-74
2021/12/09 08:53:52;;;;;;;2.60;1.70;;;7.10;99.90;;;;;;5072239;28;20176;-76
2021/12/09 08:56:18;;;;;;;3.73;1.67;;;7.00;99.90;;;;;;5089216;28;20186;-76
2021/12/09 08:58:44;;;;;;;5.83;2.20;;;7.20;99.90;;;;;;5072336;28;20650;-79
2021/12/09 09:01:12;;;;;;;6.13;1.97;;;7.20;99.90;;;;;;5084619;28;20179;-75
2021/12/09 09:03:38;;;;;;;2.80;1.83;;;7.10;99.90;;;;;;5087587;28;20180;-75
2021/12/09 09:06:05;;;;;;;5.90;1.73;;;7.10;99.90;;;;;;5096872;28;20815;-76
2021/12/09 09:08:31;;;;;;;4.07;1.90;;;7.10;99.90;;;;;;5095230;28;20340;-75
2021/12/09 09:10:57;;;;;;;8.63;2.50;;;7.10;99.90;;;;;;5098524;28;20203;-75
2021/12/09 09:13:23;;;;;;;3.93;2.20;;;7.30;99.90;;;;;;5075273;28;20230;-74
2021/12/09 09:15:49;;;;;;;2.33;1.93;;;7.10;99.90;;;;;;5099048;28;20619;-75
2021/12/09 09:18:17;;;;;;;2.20;1.67;;;7.10;99.90;;;;;;5085941;28;20209;-74
2021/12/09 09:20:47;;;;;;;5.03;1.97;;;7.20;99.90;;;;;;5075896;28;20186;-76
2021/12/09 09:23:15;;;;;;;3.17;1.70;;;7.10;99.90;;;;;;5105715;28;20626;-75
2021/12/09 09:25:42;;;;;;;3.80;2.57;;;7.30;99.90;;;;;;5094185;28;20204;-76
2021/12/09 09:28:10;;;;;;;6.47;1.70;;;7.40;99.90;;;;;;5059338;28;20172;-75
2021/12/09 09:30:40;;;;;;;5.87;2.20;;;7.50;99.90;;;;;;5092136;28;20179;-75
2021/12/09 09:33:13;;;;;;;3.23;1.80;;;7.40;99.90;;;;;;5069422;28;20211;-77
2021/12/09 09:35:41;;;;;;;2.70;1.70;;;7.40;99.90;;;;;;5104269;28;20172;-76
2021/12/09 09:38:08;;;;;;;3.77;1.80;;;7.50;99.90;;;;;;5101838;28;20171;-76
2021/12/09 09:40:49;;;;;;;4.50;2.27;;;7.40;99.90;;;;;;5094081;28;20202;-76
2021/12/09 09:45:54;;;;;;;5.87;3.03;;;7.40;99.90;;;;;;5094563;28;20184;-76
2021/12/09 09:48:20;;;;;;;7.17;4.73;;;7.30;99.90;;;;;;5105329;28;20651;-75
2021/12/09 09:50:46;;;;;;;4.17;2.67;;;7.50;99.90;;;;;;5107871;28;20693;-76
2021/12/09 09:53:12;;;;;;;4.73;2.63;;;7.50;99.90;;;;;;5094324;28;20214;-75
2021/12/09 09:55:38;;;;;;;8.60;5.80;;;7.60;99.90;;;;;;5097760;28;20185;-77
2021/12/09 09:58:04;;;;;;;8.80;4.67;;;7.60;99.90;;;;;;5093355;28;20673;-75
2021/12/09 10:00:31;;;;;;;3.63;2.20;;;7.70;99.90;;;;;;5096032;28;20636;-76
2021/12/09 10:03:02;;;;;;;3.00;1.90;;;7.50;99.90;;;;;;5101070;28;20285;-75
2021/12/09 10:05:35;;;;;;;3.67;1.83;;;7.60;99.90;;;;;;5098754;28;20172;-77
2021/12/09 10:08:02;;;;;;;3.33;2.07;;;7.70;99.90;;;;;;5101133;27;20178;-77
2021/12/09 10:10:28;;;;;;;6.77;2.27;;;7.40;99.90;;;;;;5100845;28;20202;-75
2021/12/09 10:12:56;;;;;;;5.40;2.17;;;7.50;99.90;;;;;;5092510;28;20682;-76
2021/12/09 10:15:49;;;;;;;11.20;6.43;;;7.70;99.90;;;;;;5081083;28;20179;-76
2021/12/09 10:18:50;;;;;;;8.23;3.87;;;7.70;99.90;;;;;;5099477;28;20175;-74
2021/12/09 10:21:29;;;;;;;7.60;2.80;;;7.60;99.90;;;;;;5100055;28;20518;-74
2021/12/09 10:24:04;;;;;;;3.67;2.30;;;7.80;99.90;;;;;;5093154;28;20177;-74
2021/12/09 10:26:36;;;;;;;3.40;2.00;;;7.90;99.90;;;;;;5102770;28;20228;-76
2021/12/09 10:29:07;;;;;;;3.60;1.90;;;7.60;99.90;;;;;;5086740;28;20287;-76
2021/12/09 10:32:01;;;;;;;4.00;1.90;;;7.70;99.90;;;;;;5078538;28;20208;-74
2021/12/09 10:34:40;;;;;;;5.27;2.87;;;7.80;99.90;;;;;;5096856;28;20194;-76
2021/12/09 10:37:27;;;;;;;4.73;2.43;;;7.80;99.90;;;;;;5099600;27;20249;-76
2021/12/09 10:39:58;;;;;;;2.73;2.13;;;7.90;99.90;;;;;;5098537;28;20270;-74
2021/12/09 10:42:30;;;;;;;3.97;2.40;;;7.90;99.90;;;;;;5108531;27;20199;-76
2021/12/09 10:45:07;;;;;;;3.43;2.37;;;7.80;99.90;;;;;;5091504;28;20587;-76
2021/12/09 10:47:47;;;;;;;4.73;2.60;;;7.80;99.90;;;;;;5099245;28;20653;-76
2021/12/09 10:51:12;;;;;;;6.27;2.40;;;7.90;99.90;;;;;;5102717;28;20252;-74
2021/12/09 10:56:03;;;;;;;3.20;1.40;;;7.70;99.90;;;;;;5110423;28;20179;-75
2021/12/09 10:58:55;;;;;;;5.33;1.70;;;7.70;99.90;;;;;;5078092;28;20304;-76
2021/12/09 11:01:26;;;;;;;3.77;1.97;;;7.90;99.90;;;;;;5091806;28;20191;-77
2021/12/09 11:03:54;;;;;;;5.43;1.93;;;7.90;99.90;;;;;;5090956;28;20558;-74
2021/12/09 11:06:29;;;;;;;4.67;1.93;;;8.00;99.90;;;;;;5102836;28;20195;-76
2021/12/09 11:08:59;;;;;;;8.47;3.03;;;8.20;99.90;;;;;;5090218;28;20175;-79
2021/12/09 11:11:30;;;;;;;3.00;1.63;;;7.90;99.90;;;;;;5107461;28;20185;-76
2021/12/09 11:14:03;;;;;;;5.53;2.30;;;8.10;99.90;;;;;;5090774;28;20305;-75
2021/12/09 11:16:36;;;;;;;6.83;1.90;;;8.00;99.90;;;;;;5097766;28;20175;-75
2021/12/09 11:19:12;;;;;;;3.33;1.73;;;8.10;99.90;;;;;;5098023;28;20632;-78
2021/12/09 11:21:46;;;;;;;5.83;1.97;;;8.10;99.90;;;;;;5099412;28;20171;-76
2021/12/09 11:24:18;;;;;;;3.10;1.90;;;8.10;99.90;;;;;;5101097;28;20184;-76
2021/12/09 11:29:18;;;;;;;3.03;1.60;;;8.20;99.90;;;;;;5106105;28;20175;-77
2021/12/09 11:31:51;;;;;;;1.80;1.30;;;8.20;99.90;;;;;;5093705;28;20619;-79
2021/12/09 11:34:21;;;;;;;3.00;1.70;;;8.30;99.90;;;;;;5101801;28;20228;-79
2021/12/09 11:36:54;;;;;;;5.27;1.77;;;8.20;99.90;;;;;;5101698;28;20167;-74
2021/12/09 11:39:29;;;;;;;2.93;1.20;;;8.20;99.90;;;;;;5100469;28;20230;-80
2021/12/09 11:42:07;;;;;;;2.17;1.40;;;7.90;99.90;;;;;;5108267;28;20194;-78
2021/12/09 11:44:33;;;;;;;6.47;1.57;;;8.10;99.90;;;;;;5091910;28;20226;-80
2021/12/09 11:47:00;;;;;;;4.30;1.70;;;8.30;99.90;;;;;;5093695;28;20203;-80
2021/12/09 11:49:25;;;;;;;2.67;1.37;;;8.40;99.90;;;;;;5094197;28;20266;-81
2021/12/09 11:51:52;;;;;;;2.53;1.60;;;8.10;99.90;;;;;;5101704;28;20661;-75
2021/12/09 11:54:17;;;;;;;2.27;1.27;;;8.20;99.90;;;;;;5102125;28;20181;-76
2021/12/09 12:11:28;;;;;;;2.97;1.23;;;8.30;99.90;;;;;;5095355;28;20187;-75
2021/12/09 12:16:30;;;;;;;4.13;1.80;;;8.50;99.90;;;;;;5101713;28;20171;-76
2021/12/09 12:19:04;;;;;;;8.63;3.10;;;8.10;99.90;;;;;;5095768;28;20190;-75
2021/12/09 12:21:47;;;;;;;7.97;4.10;;;8.10;99.90;;;;;;5075365;28;20184;-81
2021/12/09 12:28:00;;;;;;;2.90;1.70;;;8.30;99.90;;;;;;5108726;28;20183;-76
2021/12/09 12:34:39;;;;;;;5.40;2.00;;;8.30;99.90;;;;;;5097190;28;20213;-76
2021/12/09 12:42:17;;;;;;;8.47;1.80;;;8.40;99.90;;;;;;5099371;28;20187;-76
2021/12/09 12:45:30;;;;;;;2.83;1.60;;;8.50;99.90;;;;;;5109274;28;20180;-80
2021/12/09 12:50:35;;;;;;;3.40;1.73;;;8.40;99.90;;;;;;5085022;28;20211;-78
2021/12/09 12:53:31;;;;;;;6.43;1.80;;;8.50;99.90;;;;;;5112488;28;20218;-80
2021/12/09 12:56:20;;;;;;;5.93;1.97;;;8.80;99.90;;;;;;5104801;28;20186;-77
2021/12/09 12:59:15;;;;;;;6.57;1.60;;;8.80;99.90;;;;;;5080286;28;20180;-76
2021/12/09 13:01:52;;;;;;;4.50;1.83;;;8.70;99.90;;;;;;5090024;28;20171;-80
2021/12/09 13:07:50;;;;;;;6.13;1.47;;;8.80;99.90;;;;;;5095491;28;20316;-79
2021/12/09 13:18:59;;;;;;;5.47;1.73;;;8.80;99.90;;;;;;5091705;28;20213;-76
2021/12/09 13:21:56;;;;;;;2.83;1.97;;;8.80;99.90;;;;;;5101752;28;20171;-79
2021/12/09 13:24:27;;;;;;;4.30;2.20;;;8.70;99.90;;;;;;5098658;28;20523;-78
2021/12/09 13:30:01;;;;;;;4.93;2.43;;;8.50;99.90;;;;;;5099644;28;20207;-79
2021/12/09 13:46:21;;;;;;;8.17;2.17;;;8.30;99.90;;;;;;5112442;28;20282;-76
2021/12/09 13:51:57;;;;;;;3.90;2.07;;;8.30;99.90;;;;;;5093662;28;20245;-84
2021/12/09 13:54:30;;;;;;;5.37;1.90;;;8.30;99.90;;;;;;5072029;28;20225;-75
2021/12/09 13:56:59;;;;;;;5.63;2.20;;;8.30;99.90;;;;;;5073079;28;20172;-80
2021/12/09 13:59:28;;;;;;;5.17;2.57;;;8.30;99.90;;;;;;5089810;28;20561;-75
2021/12/09 14:02:13;;;;;;;4.10;2.10;;;8.30;99.90;;;;;;5102738;28;20277;-79
2021/12/09 14:04:40;;;;;;;5.47;1.77;;;8.20;99.90;;;;;;5101151;28;20189;-75
2021/12/09 14:07:23;;;;;;;4.77;1.80;;;8.30;99.90;;;;;;5099074;28;20522;-75
2021/12/09 14:10:03;;;;;;;2.47;1.77;;;8.30;99.90;;;;;;5097168;28;20197;-75
2021/12/09 14:12:37;;;;;;;5.50;2.20;;;8.50;99.90;;;;;;5094733;28;20513;-74
2021/12/09 14:15:11;;;;;;;5.47;2.10;;;8.30;99.90;;;;;;5109187;28;20411;-75
2021/12/09 14:17:41;;;;;;;5.13;1.63;;;8.20;99.90;;;;;;5102652;28;20175;-78
2021/12/09 14:20:19;;;;;;;8.63;2.03;;;8.30;99.90;;;;;;5095767;28;20175;-79